createdAt,value
2018-09-08T00:02:22.492Z,100185.35
2018-09-08T00:04:53.973Z,100191.27
2018-09-08T00:07:29.393Z,100188.40
2018-09-08T00:09:59.642Z,100188.60
2018-09-08T00:12:29.468Z,100193.17
2018-09-08T00:15:04.226Z,100187.91
2018-09-08T00:17:38.759Z,100188.34
2018-09-08T00:20:13.745Z,100194.03
2018-09-08T00:22:48.812Z,100201.06
2018-09-08T00:25:23.750Z,100200.66
2018-09-08T00:28:05.659Z,100208.47
2018-09-08T00:30:35.501Z,100214.58
2018-09-08T00:33:05.452Z,100217.47
2018-09-08T00:35:35.907Z,100219.66
2018-09-08T00:38:05.726Z,100221.55
2018-09-08T00:40:35.581Z,100223.27
2018-09-08T00:43:05.606Z,100220.70
2018-09-08T00:45:36.106Z,100222.66
2018-09-08T00:48:06.014Z,100221.92
2018-09-08T00:50:36.144Z,100224.38
2018-09-08T00:53:05.976Z,100235.45
2018-09-08T00:55:35.959Z,100241.07
2018-09-08T00:58:05.782Z,100239.42
2018-09-08T01:00:35.903Z,100243.65
2018-09-08T01:03:05.745Z,100242.54
2018-09-08T01:05:35.597Z,100245.34
2018-09-08T01:08:05.474Z,100254.03
2018-09-08T01:10:35.520Z,100250.03
2018-09-08T01:13:05.521Z,100251.99
2018-09-08T01:15:35.786Z,100259.14
2018-09-08T01:18:06.325Z,100265.66
2018-09-08T01:20:36.177Z,100262.05
2018-09-08T01:23:08.540Z,100259.05
2018-09-08T01:25:39.467Z,100256.67
2018-09-08T01:28:09.330Z,100252.62
2018-09-08T01:30:39.192Z,100253.16
2018-09-08T01:33:08.950Z,100252.12
2018-09-08T01:35:39.287Z,100247.05
2018-09-08T01:38:09.416Z,100245.48
2018-09-08T01:40:39.409Z,100249.44
2018-09-08T01:43:09.162Z,100252.44
2018-09-08T01:45:38.932Z,100252.44
2018-09-08T01:48:08.811Z,100252.20
2018-09-08T01:50:39.286Z,100257.51
2018-09-08T01:53:09.440Z,100264.95
2018-09-08T01:55:39.507Z,100268.68
2018-09-08T01:58:09.347Z,100276.44
2018-09-08T02:00:39.294Z,100269.91
2018-09-08T02:03:10.505Z,100267.83
2018-09-08T02:05:41.483Z,100203.63
2018-09-08T02:08:12.339Z,100269.39
2018-09-08T02:10:43.696Z,100274.97
2018-09-08T02:13:14.893Z,100272.92
2018-09-08T02:15:45.721Z,100277.55
2018-09-08T02:18:16.410Z,100278.69
2018-09-08T02:20:47.361Z,100277.57
2018-09-08T02:23:18.796Z,100279.00
2018-09-08T02:25:49.642Z,100278.30
2018-09-08T02:28:20.381Z,100282.33
2018-09-08T02:30:51.357Z,100287.59
2018-09-08T02:33:23.322Z,100286.97
2018-09-08T02:35:53.318Z,100291.41
2018-09-08T02:38:24.212Z,100288.63
2018-09-08T02:40:54.618Z,100292.70
2018-09-08T02:43:25.422Z,100298.80
2018-09-08T02:45:56.509Z,100295.90
2018-09-08T02:48:27.367Z,100299.72
2018-09-08T02:50:56.605Z,100299.50
2018-09-08T02:53:27.300Z,100295.69
2018-09-08T02:55:58.130Z,100291.44
2018-09-08T02:58:27.690Z,100292.34
2018-09-08T03:00:56.903Z,100286.75
2018-09-08T03:03:26.635Z,100277.41
2018-09-08T03:05:54.602Z,100311.11
2018-09-08T03:08:22.745Z,100317.47
2018-09-08T03:10:50.717Z,100317.64
2018-09-08T03:13:18.745Z,100321.52
2018-09-08T03:15:46.837Z,100318.30
2018-09-08T03:18:14.816Z,100320.84
2018-09-08T03:20:42.808Z,100312.66
2018-09-08T03:23:10.766Z,100325.53
2018-09-08T03:25:38.970Z,100329.25
2018-09-08T03:28:06.985Z,100331.62
2018-09-08T03:30:34.901Z,100334.56
2018-09-08T03:33:03.045Z,100335.25
2018-09-08T03:35:30.982Z,100337.38
2018-09-08T03:37:58.914Z,100336.75
2018-09-08T03:40:26.998Z,100344.48
2018-09-08T03:42:55.017Z,100340.22
2018-09-08T03:45:22.952Z,100341.55
2018-09-08T03:47:50.935Z,100342.27
2018-09-08T03:50:18.868Z,100342.76
2018-09-08T03:52:46.938Z,100356.48
2018-09-08T03:55:14.903Z,100358.43
2018-09-08T03:57:42.829Z,100358.86
2018-09-08T04:00:10.896Z,100364.94
2018-09-08T04:02:40.863Z,100361.12
2018-09-08T04:05:10.696Z,100365.71
2018-09-08T04:07:40.676Z,100367.44
2018-09-08T04:10:10.538Z,100370.02
2018-09-08T04:12:40.608Z,100368.74
2018-09-08T04:15:10.483Z,100379.33
2018-09-08T04:17:40.480Z,100382.77
2018-09-08T04:20:10.931Z,100383.16
2018-09-08T04:22:40.708Z,100386.86
2018-09-08T04:25:10.563Z,100386.55
2018-09-08T04:27:40.366Z,100390.25
2018-09-08T04:30:10.556Z,100384.95
2018-09-08T04:32:40.437Z,100399.58
2018-09-08T04:35:10.503Z,100389.77
2018-09-08T04:37:40.483Z,100402.27
2018-09-08T04:40:10.513Z,100402.33
2018-09-08T04:42:40.688Z,100399.39
2018-09-08T04:45:10.626Z,100411.33
2018-09-08T04:47:40.513Z,100407.80
2018-09-08T04:50:10.513Z,100407.80
2018-09-08T04:52:40.715Z,100406.47
2018-09-08T04:55:10.729Z,100414.19
2018-09-08T04:57:40.828Z,100421.90
2018-09-08T05:00:10.931Z,100423.07
2018-09-08T05:02:40.778Z,100427.90
2018-09-08T05:05:12.559Z,100423.50
2018-09-08T05:07:42.476Z,100430.84
2018-09-08T05:10:12.617Z,100432.33
2018-09-08T05:12:42.684Z,100435.50
2018-09-08T05:15:12.465Z,100441.88
2018-09-08T05:17:42.965Z,100441.50
2018-09-08T05:20:12.825Z,100447.77
2018-09-08T05:22:42.765Z,100447.44
2018-09-08T05:25:12.628Z,100445.52
2018-09-08T05:27:42.530Z,100456.44
2018-09-08T05:30:12.545Z,100459.76
2018-09-08T05:32:42.893Z,100454.78
2018-09-08T05:35:12.821Z,100458.48
2018-09-08T05:37:42.754Z,100461.98
2018-09-08T05:40:12.633Z,100470.45
2018-09-08T05:42:43.500Z,100471.02
2018-09-08T05:45:13.549Z,100471.20
2018-09-08T05:47:43.534Z,100477.87
2018-09-08T05:50:15.296Z,100484.86
2018-09-08T05:52:45.521Z,100487.11
2018-09-08T05:55:15.614Z,100492.08
2018-09-08T05:57:45.896Z,100502.14
2018-09-08T06:00:15.795Z,100509.79
2018-09-08T06:02:45.530Z,100506.41
2018-09-08T06:05:15.495Z,100520.34
2018-09-08T06:07:45.431Z,100517.08
2018-09-08T06:10:15.408Z,100523.25
2018-09-08T06:12:45.667Z,100520.01
2018-09-08T06:15:15.350Z,100516.52
2018-09-08T06:17:45.817Z,100523.70
2018-09-08T06:20:15.533Z,100526.71
2018-09-08T06:22:45.329Z,100533.23
2018-09-08T06:25:15.408Z,100526.36
2018-09-08T06:27:45.720Z,100531.04
2018-09-08T06:30:15.568Z,100536.63
2018-09-08T06:32:45.513Z,100535.06
2018-09-08T06:35:15.461Z,100533.84
2018-09-08T06:37:45.668Z,100547.98
2018-09-08T06:40:15.574Z,100537.27
2018-09-08T06:42:45.536Z,100543.33
2018-09-08T06:45:15.777Z,100540.16
2018-09-08T06:47:46.239Z,100549.47
2018-09-08T06:50:16.534Z,100549.56
2018-09-08T06:52:47.124Z,100555.14
2018-09-08T06:55:17.300Z,100556.80
2018-09-08T06:57:47.075Z,100564.05
2018-09-08T07:00:16.933Z,100567.58
2018-09-08T07:02:46.874Z,100571.63
2018-09-08T07:05:17.190Z,100572.05
2018-09-08T07:07:46.957Z,100576.91
2018-09-08T07:10:16.934Z,100586.86
2018-09-08T07:12:47.173Z,100582.83
2018-09-08T07:15:17.275Z,100575.70
2018-09-08T07:17:47.182Z,100589.24
2018-09-08T07:20:17.034Z,100593.70
2018-09-08T07:22:47.234Z,100592.48
2018-09-08T07:25:17.086Z,100593.45
2018-09-08T07:27:46.999Z,100597.42
2018-09-08T07:30:17.602Z,100603.75
2018-09-08T07:32:48.577Z,100603.75
2018-09-08T07:35:19.297Z,100605.05
2018-09-08T07:37:50.164Z,100605.73
2018-09-08T07:40:21.456Z,100606.30
2018-09-08T07:42:52.360Z,100610.50
2018-09-08T07:45:23.194Z,100607.00
2018-09-08T07:47:54.609Z,100611.14
2018-09-08T07:50:25.443Z,100615.90
2018-09-08T07:52:56.586Z,100616.17
2018-09-08T07:55:27.449Z,100612.27
2018-09-08T07:57:58.554Z,100618.44
2018-09-08T08:00:29.415Z,100623.71
2018-09-08T08:03:00.550Z,100627.73
2018-09-08T08:05:32.462Z,100623.87
2018-09-08T08:08:02.451Z,100635.67
2018-09-08T08:10:33.276Z,100625.05
2018-09-08T08:13:04.346Z,100625.45
2018-09-08T08:15:35.327Z,100635.83
2018-09-08T08:18:06.721Z,100632.92
2018-09-08T08:20:37.357Z,100630.85
2018-09-08T08:23:09.905Z,100638.84
2018-09-08T08:25:39.850Z,100642.17
2018-09-08T08:28:10.636Z,100647.83
2018-09-08T08:30:41.548Z,100651.00
2018-09-08T08:33:12.623Z,100653.11
2018-09-08T08:35:43.615Z,100659.41
2018-09-08T08:38:14.672Z,100667.66
2018-09-08T08:40:45.483Z,100669.30
2018-09-08T08:43:16.455Z,100672.12
2018-09-08T08:45:47.437Z,100664.11
2018-09-08T08:48:18.644Z,100663.13
2018-09-08T08:50:59.913Z,100655.00
2018-09-08T08:53:42.188Z,100650.03
2018-09-08T08:56:12.266Z,100653.06
2018-09-08T08:58:42.439Z,100663.33
2018-09-08T09:01:13.056Z,100650.63
2018-09-08T09:03:42.813Z,100651.04
2018-09-08T09:06:12.706Z,100660.16
2018-09-08T09:08:43.160Z,100654.70
2018-09-08T09:11:13.437Z,100659.02
2018-09-08T09:13:43.264Z,100652.73
2018-09-08T09:16:13.423Z,100653.12
2018-09-08T09:18:54.381Z,100652.39
2018-09-08T09:21:34.656Z,100646.49
2018-09-08T09:24:26.004Z,100647.61
2018-09-08T09:26:55.645Z,100644.11
2018-09-08T09:29:25.576Z,100642.95
2018-09-08T09:31:55.539Z,100639.41
2018-09-08T09:34:25.604Z,100649.89
2018-09-08T09:36:55.479Z,100654.81
2018-09-08T09:39:25.430Z,100647.10
2018-09-08T09:41:55.494Z,100651.46
2018-09-08T09:44:25.499Z,100648.00
2018-09-08T09:46:55.692Z,100645.74
2018-09-08T09:49:25.768Z,100652.49
2018-09-08T09:51:55.572Z,100649.16
2018-09-08T09:54:27.904Z,100645.80
2018-09-08T09:56:57.930Z,100644.25
2018-09-08T09:59:27.853Z,100636.70
2018-09-08T10:02:02.426Z,100632.17
2018-09-08T10:04:32.628Z,100645.31
2018-09-08T10:07:02.731Z,100643.86
2018-09-08T10:09:32.823Z,100645.69
2018-09-08T10:12:02.804Z,100647.54
2018-09-08T10:14:32.783Z,100646.84
2018-09-08T10:17:02.843Z,100646.17
2018-09-08T10:19:39.143Z,100647.65
2018-09-08T10:22:09.217Z,100639.71
2018-09-08T10:24:39.252Z,100639.33
2018-09-08T10:27:09.389Z,100633.42
2018-09-08T10:29:39.530Z,100640.94
2018-09-08T10:32:09.675Z,100640.45
2018-09-08T10:34:39.648Z,100643.53
2018-09-08T10:37:09.554Z,100646.61
2018-09-08T10:39:39.583Z,100648.89
2018-09-08T10:42:09.645Z,100642.33
2018-09-08T10:44:39.541Z,100641.81
2018-09-08T10:47:09.842Z,100644.67
2018-09-08T10:49:39.929Z,100651.08
2018-09-08T10:52:22.162Z,100646.90
2018-09-08T10:54:52.275Z,100642.41
2018-09-08T10:57:22.406Z,100648.84
2018-09-08T10:59:53.039Z,100638.44
2018-09-08T11:02:23.425Z,100641.08
2018-09-08T11:04:53.514Z,100633.95
2018-09-08T11:07:23.616Z,100638.22
2018-09-08T11:09:53.483Z,100635.41
2018-09-08T11:12:23.548Z,100633.44
2018-09-08T11:14:53.660Z,100636.20
2018-09-08T11:17:23.739Z,100636.69
2018-09-08T11:19:53.817Z,100636.74
2018-09-08T11:22:23.621Z,100632.83
2018-09-08T11:24:53.481Z,100649.73
2018-09-08T11:27:23.608Z,100637.88
2018-09-08T11:29:53.627Z,100641.05
2018-09-08T11:32:23.845Z,100634.56
2018-09-08T11:34:53.937Z,100628.27
2018-09-08T11:37:23.911Z,100645.06
2018-09-08T11:39:53.666Z,100635.27
2018-09-08T11:42:23.510Z,100640.61
2018-09-08T11:44:53.496Z,100637.00
2018-09-08T11:47:23.721Z,100640.98
2018-09-08T11:49:53.652Z,100628.37
2018-09-08T11:52:23.476Z,100635.23
2018-09-08T11:54:53.610Z,100638.28
2018-09-08T11:57:23.539Z,100630.55
2018-09-08T11:59:53.388Z,100639.39
2018-09-08T12:02:23.705Z,100633.26
2018-09-08T12:04:53.538Z,100629.63
2018-09-08T12:07:23.509Z,100623.74
2018-09-08T12:09:53.953Z,100631.69
2018-09-08T12:12:23.750Z,100631.72
2018-09-08T12:14:54.126Z,100629.88
2018-09-08T12:17:24.273Z,100626.52
2018-09-08T12:19:54.624Z,100621.57
2018-09-08T12:22:24.662Z,100627.06
2018-09-08T12:24:54.937Z,100624.41
2018-09-08T12:27:25.133Z,100626.26
2018-09-08T12:30:03.271Z,100626.86
2018-09-08T12:32:33.107Z,100621.91
2018-09-08T12:35:03.677Z,100629.47
2018-09-08T12:37:33.434Z,100627.48
2018-09-08T12:40:03.561Z,100637.88
2018-09-08T12:42:33.801Z,100628.02
2018-09-08T12:45:04.785Z,100624.95
2018-09-08T12:47:35.517Z,100624.93
2018-09-08T12:50:05.783Z,100624.31
2018-09-08T12:52:36.022Z,100628.52
2018-09-08T12:55:06.516Z,100631.82
2018-09-08T12:57:36.621Z,100626.67
2018-09-08T13:00:06.842Z,100628.48
2018-09-08T13:02:36.539Z,100621.05
2018-09-08T13:05:06.433Z,100622.44
2018-09-08T13:07:36.339Z,100614.52
2018-09-08T13:10:06.337Z,100617.47
2018-09-08T13:12:36.241Z,100619.86
2018-09-08T13:15:06.929Z,100620.66
2018-09-08T13:17:37.010Z,100611.08
2018-09-08T13:20:07.033Z,100608.38
2018-09-08T13:22:36.883Z,100611.08
2018-09-08T13:25:07.356Z,100602.55
2018-09-08T13:27:37.124Z,100605.55
2018-09-08T13:30:07.743Z,100603.75
2018-09-08T13:32:38.967Z,100602.92
2018-09-08T13:35:09.035Z,100599.59
2018-09-08T13:37:39.822Z,100596.95
2018-09-08T13:40:09.603Z,100598.16
2018-09-08T13:42:40.554Z,100590.27
2018-09-08T13:45:11.311Z,100594.41
2018-09-08T13:47:42.356Z,100598.74
2018-09-08T13:50:13.154Z,100596.23
2018-09-08T13:52:44.794Z,100596.91
2018-09-08T13:55:15.629Z,100601.28
2018-09-08T13:57:46.662Z,100595.20
2018-09-08T14:00:17.495Z,100595.80
2018-09-08T14:02:48.522Z,100596.30
2018-09-08T14:05:19.309Z,100600.54
2018-09-08T14:07:53.033Z,100596.59
2018-09-08T14:10:22.940Z,100600.64
2018-09-08T14:12:52.739Z,100599.37
2018-09-08T14:15:23.376Z,100601.00
2018-09-08T14:17:55.030Z,100601.09
2018-09-08T14:20:25.959Z,100601.73
2018-09-08T14:22:56.789Z,100595.56
2018-09-08T14:25:27.576Z,100591.30
2018-09-08T14:27:58.431Z,100592.55
2018-09-08T14:30:29.343Z,100598.14
2018-09-08T14:33:00.438Z,100599.53
2018-09-08T14:35:31.442Z,100597.38
2018-09-08T14:38:02.260Z,100600.06
2018-09-08T14:40:33.449Z,100597.73
2018-09-08T14:43:04.205Z,100600.66
2018-09-08T14:45:35.598Z,100599.20
2018-09-08T14:51:03.878Z,100595.61
2018-09-08T14:53:34.510Z,100601.47
2018-09-08T14:56:04.699Z,100600.80
2018-09-08T14:58:34.516Z,100602.30
2018-09-08T15:01:04.607Z,100605.72
2018-09-08T15:03:34.521Z,100602.09
2018-09-08T15:06:15.501Z,100605.12
2018-09-08T15:08:45.716Z,100605.33
2018-09-08T15:11:15.522Z,100606.27
2018-09-08T15:13:45.556Z,100604.51
2018-09-08T15:16:15.520Z,100606.10
2018-09-08T15:18:45.415Z,100609.78
2018-09-08T15:21:15.608Z,100614.91
2018-09-08T15:23:45.460Z,100616.06
2018-09-08T15:26:15.425Z,100622.23
2018-09-08T15:28:45.589Z,100616.59
2018-09-08T15:31:15.443Z,100622.60
2018-09-08T15:33:46.062Z,100621.14
2018-09-08T15:36:16.056Z,100621.95
2018-09-08T15:38:45.894Z,100619.48
2018-09-08T15:41:15.851Z,100619.97
2018-09-08T15:43:46.053Z,100613.36
2018-09-08T15:46:16.158Z,100618.40
2018-09-08T15:48:46.004Z,100616.55
2018-09-08T15:51:16.390Z,100619.23
2018-09-08T15:53:46.909Z,100623.24
2018-09-08T15:56:17.529Z,100622.96
2018-09-08T15:58:47.547Z,100620.70
2018-09-08T16:01:18.055Z,100620.88
2018-09-08T16:03:48.247Z,100621.25
2018-09-08T16:06:18.009Z,100616.83
2018-09-08T16:08:47.970Z,100616.55
2018-09-08T16:11:17.914Z,100617.98
2018-09-08T16:13:48.415Z,100619.17
2018-09-08T16:16:18.203Z,100614.03
2018-09-08T16:18:48.078Z,100616.55
2018-09-08T16:21:18.133Z,100619.37
2018-09-08T16:23:47.926Z,100619.25
2018-09-08T16:26:18.073Z,100612.05
2018-09-08T16:28:48.319Z,100626.42
2018-09-08T16:31:18.321Z,100623.96
2018-09-08T16:33:48.134Z,100636.38
2018-09-08T16:36:18.477Z,100639.34
2018-09-08T16:38:49.302Z,100643.04
2018-09-08T16:41:20.237Z,100643.67
2018-09-08T16:43:51.525Z,100634.98
2018-09-08T16:46:22.229Z,100645.19
2018-09-08T16:48:53.314Z,100642.98
2018-09-08T16:51:24.229Z,100640.09
2018-09-08T16:53:55.294Z,100640.21
2018-09-08T16:56:26.288Z,100647.36
2018-09-08T16:58:57.357Z,100654.45
2018-09-08T17:01:28.567Z,100654.55
2018-09-08T17:03:58.405Z,100655.98
2018-09-08T17:06:29.124Z,100656.12
2018-09-08T17:09:00.756Z,100655.93
2018-09-08T17:11:31.377Z,100659.75
2018-09-08T17:14:03.297Z,100653.59
2018-09-08T17:16:34.239Z,100659.34
2018-09-08T17:19:04.300Z,100665.14
2018-09-08T17:21:35.100Z,100660.39
2018-09-08T17:24:06.708Z,100670.85
2018-09-08T17:26:37.536Z,100671.66
2018-09-08T17:29:08.589Z,100670.59
2018-09-08T17:31:40.556Z,100673.98
2018-09-08T17:34:11.085Z,100673.36
2018-09-08T17:36:41.568Z,100674.31
2018-09-08T17:39:13.801Z,100676.05
2018-09-08T17:41:45.894Z,100686.27
2018-09-08T17:44:16.191Z,100697.87
2018-09-08T17:46:45.935Z,100691.18
2018-09-08T17:49:16.621Z,100696.62
2018-09-08T17:51:47.296Z,100701.48
2018-09-08T17:54:18.405Z,100706.30
2018-09-08T17:56:49.309Z,100707.11
2018-09-08T17:59:20.726Z,100711.41
2018-09-08T18:01:51.639Z,100715.19
2018-09-08T18:04:22.691Z,100712.53
2018-09-08T18:06:53.724Z,100700.84
2018-09-08T18:09:28.625Z,100725.03
2018-09-08T18:12:04.624Z,100726.20
2018-09-08T18:14:35.332Z,100730.61
2018-09-08T18:17:05.527Z,100736.55
2018-09-08T18:19:35.497Z,100734.39
2018-09-08T18:22:05.294Z,100737.52
2018-09-08T18:24:35.027Z,100738.98
2018-09-08T18:27:05.249Z,100744.07
2018-09-08T18:29:35.177Z,100740.16
2018-09-08T18:32:05.352Z,100741.20
2018-09-08T18:34:35.037Z,100742.36
2018-09-08T18:37:04.875Z,100737.66
2018-09-08T18:39:35.596Z,100738.08
2018-09-08T18:42:06.409Z,100736.92
2018-09-08T18:44:37.305Z,100742.11
2018-09-08T18:47:08.205Z,100744.20
2018-09-08T18:49:39.536Z,100752.41
2018-09-08T18:52:10.543Z,100754.45
2018-09-08T18:54:41.493Z,100752.80
2018-09-08T18:57:12.540Z,100742.84
2018-09-08T18:59:43.482Z,100751.23
2018-09-08T19:02:15.462Z,100743.98
2018-09-08T19:04:45.736Z,100747.81
2018-09-08T19:07:16.461Z,100750.42
2018-09-08T19:09:51.358Z,100738.37
2018-09-08T19:12:21.079Z,100743.86
2018-09-08T19:14:56.100Z,100745.00
2018-09-08T19:17:25.821Z,100742.80
2018-09-08T19:20:01.120Z,100743.53
2018-09-08T19:22:31.241Z,100739.87
2018-09-08T19:25:01.041Z,100742.97
2018-09-08T19:27:31.249Z,100749.39
2018-09-08T19:30:02.828Z,100748.45
2018-09-08T19:32:33.125Z,100749.36
2018-09-08T19:35:07.710Z,100749.17
2018-09-08T19:37:38.578Z,100759.33
2018-09-08T19:40:14.448Z,100763.38
2018-09-08T19:42:44.693Z,100758.70
2018-09-08T19:45:14.956Z,100764.15
2018-09-08T19:47:50.061Z,100761.67
2018-09-08T19:50:19.882Z,100765.55
2018-09-08T19:52:55.506Z,100768.43
2018-09-08T19:55:25.505Z,100781.06
2018-09-08T19:58:00.717Z,100778.91
2018-09-08T20:00:30.496Z,100778.23
2018-09-08T20:03:00.505Z,100788.88
2018-09-08T20:05:30.594Z,100787.55
2018-09-08T20:08:00.774Z,100781.53
2018-09-08T20:10:30.762Z,100787.55
2018-09-08T20:13:00.651Z,100790.16
2018-09-08T20:15:30.629Z,100785.45
2018-09-08T20:18:00.768Z,100786.74
2018-09-08T20:20:30.655Z,100785.19
2018-09-08T20:23:01.209Z,100787.61
2018-09-08T20:25:31.335Z,100787.02
2018-09-08T20:28:01.273Z,100791.45
2018-09-08T20:30:31.588Z,100788.48
2018-09-08T20:33:01.497Z,100791.28
2018-09-08T20:35:31.425Z,100790.48
2018-09-08T20:38:01.246Z,100794.92
2018-09-08T20:40:31.476Z,100792.17
2018-09-08T20:43:01.298Z,100797.95
2018-09-08T20:45:31.141Z,100795.97
2018-09-08T20:48:01.088Z,100795.57
2018-09-08T20:50:31.328Z,100794.97
2018-09-08T20:53:03.548Z,100796.19
2018-09-08T20:55:35.946Z,100794.40
2018-09-08T20:58:06.563Z,100798.79
2018-09-08T21:00:36.382Z,100807.89
2018-09-08T21:03:06.547Z,100813.78
2018-09-08T21:05:36.403Z,100805.97
2018-09-08T21:08:06.211Z,100808.83
2018-09-08T21:10:36.203Z,100809.38
2018-09-08T21:13:06.027Z,100814.61
2018-09-08T21:15:36.676Z,100811.64
2018-09-08T21:18:07.560Z,100807.98
2018-09-08T21:20:38.386Z,100805.34
2018-09-08T21:23:09.458Z,100806.39
2018-09-08T21:25:40.265Z,100802.92
2018-09-08T21:28:10.837Z,100799.42
2018-09-08T21:30:41.758Z,100807.48
2018-09-08T21:33:12.478Z,100811.38
2018-09-08T21:35:43.581Z,100816.63
2018-09-08T21:38:14.938Z,100813.13
2018-09-08T21:40:46.863Z,100802.33
2018-09-08T21:43:16.683Z,100810.69
2018-09-08T21:45:47.651Z,100807.03
2018-09-08T21:48:18.617Z,100809.40
2018-09-08T21:50:49.510Z,100804.23
2018-09-08T21:53:20.540Z,100805.59
2018-09-08T21:55:51.426Z,100810.81
2018-09-08T21:58:22.730Z,100812.95
2018-09-08T22:00:56.237Z,100815.65
2018-09-08T22:03:28.071Z,100808.32
2018-09-08T22:05:58.384Z,100811.19
2018-09-08T22:08:31.902Z,100810.36
2018-09-08T22:11:49.736Z,100813.22
2018-09-08T22:14:19.972Z,100812.39
2018-09-08T22:16:49.758Z,100812.73
2018-09-08T22:19:19.719Z,100809.27
2018-09-08T22:21:49.577Z,100807.92
2018-09-08T22:24:19.557Z,100817.30
2018-09-08T22:26:49.635Z,100816.83
2018-09-08T22:29:19.468Z,100816.32
2018-09-08T22:31:49.581Z,100820.67
2018-09-08T22:34:19.794Z,100810.84
2018-09-08T22:36:49.725Z,100819.69
2018-09-08T22:39:19.633Z,100814.37
2018-09-08T22:41:50.077Z,100816.05
2018-09-08T22:44:19.869Z,100812.56
2018-09-08T22:46:49.764Z,100811.05
2018-09-08T22:49:19.576Z,100803.37
2018-09-08T22:51:49.561Z,100801.72
2018-09-08T22:54:19.593Z,100811.41
2018-09-08T22:56:49.746Z,100809.74
2018-09-08T22:59:20.063Z,100810.05
2018-09-08T23:01:49.955Z,100812.58
2018-09-08T23:04:19.767Z,100813.40
2018-09-08T23:06:49.948Z,100813.41
2018-09-08T23:09:19.798Z,100814.41
2018-09-08T23:11:49.591Z,100810.22
2018-09-08T23:14:19.613Z,100811.56
2018-09-08T23:16:49.604Z,100817.75
2018-09-08T23:19:19.886Z,100811.41
2018-09-08T23:21:49.729Z,100813.56
2018-09-08T23:24:19.594Z,100806.41
2018-09-08T23:26:54.030Z,100808.89
2018-09-08T23:29:23.881Z,100813.23
2018-09-08T23:31:53.887Z,100808.73
2018-09-08T23:34:23.672Z,100807.40
2018-09-08T23:36:53.943Z,100800.05
2018-09-08T23:39:23.760Z,100799.87
2018-09-08T23:41:53.523Z,100797.86
2018-09-08T23:44:24.182Z,100793.37
2018-09-08T23:46:54.266Z,100804.05
2018-09-08T23:49:24.438Z,100807.53
2018-09-08T23:51:54.472Z,100811.71
2018-09-08T23:54:24.675Z,100810.37
